Time;durP1;ratioP1;P1;durP2;ratioP2;P2;SDS_P1;SDS_P2;PMS_P1;PMS_P2;Temp;Humidity;BMP_temperature;BMP_pressure;BME280_temperature;BME280_humidity;BME280_pressure;Samples;Min_cycle;Max_cycle;Signal;HPM_P1;HPM_P2
2023/01/04 00:02:08;;;;;;;8.77;4.53;;;4.40;99.90;;;;;;5053949;28;20640;-77
2023/01/04 00:04:35;;;;;;;8.83;4.87;;;4.30;99.90;;;;;;5052833;28;20215;-81
2023/01/04 00:07:02;;;;;;;11.57;4.90;;;4.30;99.90;;;;;;5072570;28;20221;-75
2023/01/04 00:09:29;;;;;;;10.93;4.93;;;4.20;99.90;;;;;;5056031;28;20206;-74
2023/01/04 00:11:56;;;;;;;9.93;4.93;;;4.20;99.90;;;;;;5072503;28;20200;-76
2023/01/04 00:14:23;;;;;;;12.87;5.10;;;4.20;99.90;;;;;;5055531;28;20217;-73
2023/01/04 00:16:50;;;;;;;10.67;4.90;;;4.10;99.90;;;;;;5055453;28;20222;-75
2023/01/04 00:19:17;;;;;;;11.00;5.30;;;4.10;99.90;;;;;;5073526;28;20191;-74
2023/01/04 00:21:44;;;;;;;8.57;4.70;;;4.10;99.90;;;;;;5070082;28;20295;-76
2023/01/04 00:24:14;;;;;;;10.30;4.73;;;4.10;99.90;;;;;;5054934;28;20294;-73
2023/01/04 00:26:41;;;;;;;10.80;5.03;;;4.00;99.90;;;;;;5061854;28;20611;-78
2023/01/04 00:29:11;;;;;;;9.97;4.93;;;4.10;99.90;;;;;;5035417;28;20196;-73
2023/01/04 00:31:39;;;;;;;9.80;5.20;;;4.10;99.90;;;;;;5035442;28;20196;-74
2023/01/04 00:34:09;;;;;;;12.83;5.60;;;4.00;99.90;;;;;;5053181;28;20294;-75
2023/01/04 00:36:37;;;;;;;10.90;5.40;;;4.00;99.90;;;;;;5041566;28;20232;-74
2023/01/04 00:39:07;;;;;;;13.23;5.57;;;3.90;99.90;;;;;;5055193;28;20755;-80
2023/01/04 00:41:49;;;;;;;10.33;4.93;;;3.90;99.90;;;;;;5055525;28;20205;-77
2023/01/04 00:44:27;;;;;;;10.07;5.13;;;3.90;99.90;;;;;;5073021;28;20194;-76
2023/01/04 00:46:55;;;;;;;13.67;5.50;;;3.90;99.90;;;;;;5054548;28;20193;-78
2023/01/04 00:49:23;;;;;;;12.53;5.87;;;3.80;99.90;;;;;;5055492;28;20237;-77
2023/01/04 00:51:53;;;;;;;11.83;5.37;;;3.80;99.90;;;;;;5073072;28;20265;-76
2023/01/04 00:54:21;;;;;;;15.53;6.03;;;3.70;99.90;;;;;;5073155;28;20201;-77
2023/01/04 00:56:51;;;;;;;12.53;5.47;;;3.70;99.90;;;;;;5045978;28;20264;-77
2023/01/04 00:59:20;;;;;;;12.53;5.57;;;3.70;99.90;;;;;;5035085;28;20259;-85
2023/01/04 01:01:55;;;;;;;11.83;5.93;;;3.70;99.90;;;;;;5053264;28;20187;-82
2023/01/04 01:04:23;;;;;;;10.73;5.80;;;3.70;99.90;;;;;;5035109;28;20226;-83
2023/01/04 01:06:53;;;;;;;11.00;5.40;;;3.60;99.90;;;;;;5034987;28;20193;-81
2023/01/04 01:09:23;;;;;;;9.80;5.87;;;3.60;99.90;;;;;;5035069;28;20217;-80
2023/01/04 01:11:52;;;;;;;10.70;5.67;;;3.50;99.90;;;;;;5051648;28;20248;-84
2023/01/04 01:14:23;;;;;;;12.03;6.07;;;3.50;99.90;;;;;;5034910;28;20201;-84
2023/01/04 01:16:51;;;;;;;13.13;5.83;;;3.50;99.90;;;;;;5034863;28;20293;-83
2023/01/04 01:19:25;;;;;;;13.67;6.10;;;3.40;99.90;;;;;;5037140;28;20252;-84
2023/01/04 01:21:53;;;;;;;13.00;6.30;;;3.40;99.90;;;;;;5054862;28;20196;-85
2023/01/04 01:24:26;;;;;;;14.50;6.40;;;3.40;99.90;;;;;;5054947;28;20202;-81
2023/01/04 01:26:54;;;;;;;12.40;6.13;;;3.40;99.90;;;;;;5054555;28;20198;-77
2023/01/04 01:29:24;;;;;;;13.67;6.10;;;3.40;99.90;;;;;;5071768;28;20198;-78
2023/01/04 01:31:52;;;;;;;13.80;6.07;;;3.50;99.90;;;;;;5054802;28;20255;-83
2023/01/04 01:34:19;;;;;;;14.07;6.30;;;3.30;99.90;;;;;;5049150;28;20219;-87
2023/01/04 01:36:50;;;;;;;11.30;5.97;;;3.30;99.90;;;;;;5059672;28;20199;-77
2023/01/04 01:39:28;;;;;;;12.13;5.90;;;3.30;99.90;;;;;;5017160;28;20236;-82
2023/01/04 01:41:55;;;;;;;12.40;5.83;;;3.30;99.90;;;;;;5026232;28;20211;-75
2023/01/04 01:44:41;;;;;;;13.57;6.17;;;3.20;99.90;;;;;;5019154;28;20220;-78
2023/01/04 01:47:19;;;;;;;11.67;6.20;;;3.20;99.90;;;;;;4996331;28;20200;-75
2023/01/04 01:49:50;;;;;;;15.10;6.13;;;3.00;99.90;;;;;;5014036;28;20202;-81
2023/01/04 01:52:22;;;;;;;12.57;6.23;;;2.90;99.90;;;;;;5025413;28;20203;-83
2023/01/04 01:55:01;;;;;;;13.20;6.63;;;3.00;99.90;;;;;;5028855;28;20197;-76
2023/01/04 01:57:32;;;;;;;15.83;6.67;;;2.90;99.90;;;;;;5025568;28;20230;-78
2023/01/04 02:00:04;;;;;;;15.93;6.70;;;2.90;99.90;;;;;;5024625;28;20626;-79
2023/01/04 02:02:42;;;;;;;14.93;7.20;;;2.80;99.90;;;;;;5027967;28;20221;-79
2023/01/04 02:05:11;;;;;;;14.37;6.60;;;2.70;99.90;;;;;;5026502;28;20660;-79
2023/01/04 02:07:39;;;;;;;13.07;6.97;;;2.70;99.90;;;;;;5023997;28;20183;-82
2023/01/04 02:10:07;;;;;;;16.17;7.23;;;2.70;99.90;;;;;;5025496;28;20598;-76
2023/01/04 02:12:37;;;;;;;14.80;7.60;;;2.60;99.90;;;;;;5028780;28;20691;-78
2023/01/04 02:15:06;;;;;;;13.13;7.23;;;2.60;99.90;;;;;;5033937;28;20200;-81
2023/01/04 02:17:38;;;;;;;17.27;7.70;;;2.50;99.90;;;;;;5026753;28;20228;-81
2023/01/04 02:20:22;;;;;;;18.37;7.70;;;2.50;99.90;;;;;;5031883;28;20193;-76
2023/01/04 02:23:23;;;;;;;13.47;6.97;;;2.50;99.90;;;;;;5024754;28;20200;-74
2023/01/04 02:26:28;;;;;;;15.67;7.53;;;2.40;99.90;;;;;;5017547;28;20271;-79
2023/01/04 02:28:58;;;;;;;15.97;7.33;;;2.30;99.90;;;;;;5020230;28;20664;-80
2023/01/04 02:32:05;;;;;;;16.53;7.73;;;2.30;99.90;;;;;;5021542;28;20229;-80
2023/01/04 02:35:02;;;;;;;15.80;7.83;;;2.20;99.90;;;;;;5017262;28;20224;-80
2023/01/04 02:37:40;;;;;;;18.50;8.23;;;2.10;99.90;;;;;;5026016;28;20219;-79
2023/01/04 02:40:31;;;;;;;17.30;7.60;;;2.10;99.90;;;;;;5032008;28;20231;-79
2023/01/04 02:46:33;;;;;;;17.57;7.80;;;2.00;99.90;;;;;;5033783;28;20218;-80
2023/01/04 02:51:47;;;;;;;16.10;7.87;;;1.90;99.90;;;;;;5051063;28;20242;-80
2023/01/04 02:54:20;;;;;;;18.17;8.60;;;1.80;99.90;;;;;;5051427;28;20291;-79
2023/01/04 02:57:00;;;;;;;20.50;8.63;;;1.80;99.90;;;;;;5034277;28;20207;-80
2023/01/04 02:59:31;;;;;;;17.67;8.73;;;1.70;99.90;;;;;;5034335;28;20629;-82
2023/01/04 03:08:23;;;;;;;16.77;8.27;;;1.70;99.90;;;;;;5050831;28;20187;-78
2023/01/04 03:14:20;;;;;;;19.00;8.80;;;1.50;99.90;;;;;;5032033;28;20607;-79
2023/01/04 03:17:06;;;;;;;19.23;8.30;;;1.50;99.90;;;;;;5033595;28;20295;-80
2023/01/04 03:19:51;;;;;;;19.37;9.13;;;1.50;99.90;;;;;;5036127;28;20206;-78
2023/01/04 03:37:13;;;;;;;20.03;8.67;;;1.20;99.90;;;;;;5050580;28;20290;-81
2023/01/04 03:49:01;;;;;;;17.70;9.50;;;1.10;99.90;;;;;;5056927;28;20202;-77
2023/01/04 03:51:32;;;;;;;22.17;9.20;;;1.20;99.90;;;;;;5056283;28;20212;-78
2023/01/04 03:54:29;;;;;;;19.23;9.47;;;1.10;99.90;;;;;;5050421;28;20202;-77
2023/01/04 03:56:57;;;;;;;20.07;9.57;;;1.00;99.90;;;;;;5053470;28;20285;-73
2023/01/04 03:59:25;;;;;;;18.70;9.30;;;0.90;99.90;;;;;;5040261;28;20221;-73
2023/01/04 04:01:52;;;;;;;20.63;9.43;;;1.00;99.90;;;;;;5056051;28;20739;-76
2023/01/04 04:09:54;;;;;;;19.63;9.50;;;0.90;99.90;;;;;;5073547;28;20194;-73
2023/01/04 04:12:24;;;;;;;17.27;9.50;;;0.90;99.90;;;;;;5073713;28;20187;-79
2023/01/04 04:14:53;;;;;;;20.03;9.73;;;0.90;99.90;;;;;;5073513;28;20186;-74
2023/01/04 04:17:20;;;;;;;19.63;9.57;;;0.90;99.90;;;;;;5039391;28;20194;-75
2023/01/04 04:19:47;;;;;;;19.80;10.20;;;0.90;99.90;;;;;;5055878;28;20198;-75
2023/01/04 04:22:27;;;;;;;22.47;10.27;;;0.80;99.90;;;;;;5038583;28;20198;-80
2023/01/04 04:25:27;;;;;;;20.63;10.30;;;0.80;99.90;;;;;;5055412;28;20263;-77
2023/01/04 04:28:29;;;;;;;25.43;11.03;;;0.80;99.90;;;;;;5055489;28;20201;-78
2023/01/04 04:31:07;;;;;;;21.47;10.40;;;0.80;99.90;;;;;;5073215;28;20681;-80
2023/01/04 04:37:25;;;;;;;23.70;10.47;;;0.70;99.90;;;;;;4980291;28;20301;-78
2023/01/04 04:40:05;;;;;;;22.40;10.90;;;0.80;99.90;;;;;;5011349;28;20274;-76
2023/01/04 04:42:44;;;;;;;24.67;11.37;;;0.70;99.90;;;;;;4995245;28;20200;-78
2023/01/04 04:45:20;;;;;;;20.90;10.90;;;0.70;99.90;;;;;;4994470;28;20200;-76
2023/01/04 04:47:50;;;;;;;23.00;11.27;;;0.70;99.90;;;;;;4979019;28;20215;-77
2023/01/04 04:53:22;;;;;;;23.50;11.40;;;0.70;99.90;;;;;;5031023;28;20191;-79
2023/01/04 04:55:59;;;;;;;23.73;11.57;;;0.70;99.90;;;;;;5014489;28;20257;-80
2023/01/04 04:58:29;;;;;;;23.67;11.17;;;0.80;99.90;;;;;;5031472;28;20203;-78
2023/01/04 05:01:10;;;;;;;24.60;11.83;;;0.80;99.90;;;;;;5026723;28;20204;-78
2023/01/04 05:03:51;;;;;;;23.50;11.30;;;0.70;99.90;;;;;;5011304;28;20195;-81
2023/01/04 05:06:32;;;;;;;23.83;11.60;;;0.70;99.90;;;;;;5011048;28;20290;-75
2023/01/04 05:09:03;;;;;;;25.77;11.50;;;0.70;99.90;;;;;;5013536;28;20645;-78
2023/01/04 05:14:21;;;;;;;21.80;11.17;;;0.60;99.90;;;;;;5033604;28;20554;-84
2023/01/04 05:17:01;;;;;;;23.43;11.90;;;0.60;99.90;;;;;;5026027;28;20743;-83
2023/01/04 05:19:37;;;;;;;24.57;11.30;;;0.60;99.90;;;;;;5035886;28;20226;-80
2023/01/04 05:22:11;;;;;;;25.43;11.87;;;0.60;99.90;;;;;;5020511;28;20723;-89
2023/01/04 05:25:13;;;;;;;25.97;12.37;;;0.50;99.90;;;;;;5034770;28;20266;-83
2023/01/04 05:28:47;;;;;;;27.43;11.77;;;0.50;99.90;;;;;;5026977;28;20510;-77
2023/01/04 05:32:01;;;;;;;27.27;11.63;;;0.50;99.90;;;;;;4963658;28;20227;-79
2023/01/04 05:35:58;;;;;;;26.07;11.57;;;0.40;99.90;;;;;;4918647;29;20245;-85
2023/01/04 05:38:27;;;;;;;23.37;11.03;;;0.40;99.90;;;;;;4880558;29;20220;-83
2023/01/04 05:40:57;;;;;;;27.17;12.30;;;0.40;99.90;;;;;;4865267;29;20197;-83
2023/01/04 05:43:39;;;;;;;24.77;11.67;;;0.40;99.90;;;;;;4880621;29;20758;-86
2023/01/04 05:46:18;;;;;;;28.50;12.87;;;0.40;99.90;;;;;;4865019;29;20196;-82
2023/01/04 05:48:46;;;;;;;24.77;12.17;;;0.40;99.90;;;;;;4865261;29;20663;-79
2023/01/04 05:51:14;;;;;;;29.67;13.10;;;0.40;99.90;;;;;;4850282;29;20215;-79
2023/01/04 05:53:42;;;;;;;25.20;12.37;;;0.40;99.90;;;;;;4865118;29;20327;-86
2023/01/04 05:56:09;;;;;;;27.23;12.30;;;0.30;99.90;;;;;;4865031;29;20594;-78
2023/01/04 05:58:40;;;;;;;30.00;13.47;;;0.30;99.90;;;;;;4864646;29;20276;-78
2023/01/04 06:01:13;;;;;;;31.23;13.47;;;0.30;99.90;;;;;;4864624;29;20261;-80
2023/01/04 06:03:41;;;;;;;27.10;13.47;;;0.30;99.90;;;;;;4864725;29;20200;-78
2023/01/04 06:06:45;;;;;;;24.83;12.73;;;0.20;99.90;;;;;;4864889;29;20252;-80
2023/01/04 06:09:47;;;;;;;28.77;13.47;;;0.30;99.90;;;;;;5014268;28;20297;-76
2023/01/04 06:12:15;;;;;;;27.70;12.80;;;0.20;99.90;;;;;;5071350;28;20203;-79
2023/01/04 06:15:41;;;;;;;29.10;13.80;;;0.20;99.90;;;;;;5055945;28;20255;-80
2023/01/04 06:18:41;;;;;;;25.63;13.17;;;0.30;99.90;;;;;;4972683;28;20750;-78
2023/01/04 06:21:40;;;;;;;29.17;14.67;;;0.20;99.90;;;;;;4988419;28;20200;-79
2023/01/04 06:28:04;;;;;;;27.93;14.33;;;0.20;99.90;;;;;;4955533;28;20537;-79
2023/01/04 06:30:34;;;;;;;34.20;15.03;;;0.30;99.90;;;;;;4952439;29;20208;-82
2023/01/04 06:33:06;;;;;;;29.43;14.20;;;0.30;99.90;;;;;;4951969;29;20598;-78
2023/01/04 06:35:54;;;;;;;32.40;14.37;;;0.20;99.90;;;;;;4953058;28;20212;-78
2023/01/04 06:38:39;;;;;;;32.43;15.10;;;0.30;99.90;;;;;;4997395;28;20691;-81
2023/01/04 06:41:40;;;;;;;32.47;15.40;;;0.30;99.90;;;;;;5003551;28;20211;-82
2023/01/04 06:44:13;;;;;;;28.70;14.63;;;0.30;99.90;;;;;;4996013;28;20291;-76
2023/01/04 06:46:43;;;;;;;30.33;15.60;;;0.40;99.90;;;;;;4997065;28;20237;-79
2023/01/04 06:49:24;;;;;;;32.10;15.37;;;0.40;99.90;;;;;;4997281;28;20237;-76
2023/01/04 06:51:58;;;;;;;31.60;15.60;;;0.40;99.90;;;;;;5013490;28;20202;-84
2023/01/04 06:54:25;;;;;;;33.93;15.67;;;0.30;99.90;;;;;;4997352;28;20253;-84
2023/01/04 06:56:56;;;;;;;32.70;15.50;;;0.30;99.90;;;;;;4980670;28;20200;-80
2023/01/04 06:59:30;;;;;;;32.93;15.27;;;0.30;99.90;;;;;;4981564;28;20314;-86
2023/01/04 07:01:57;;;;;;;33.83;15.13;;;0.40;99.90;;;;;;5026155;28;20599;-90
2023/01/04 07:04:39;;;;;;;32.30;15.60;;;0.40;99.90;;;;;;5022204;28;20245;-91
2023/01/04 07:07:10;;;;;;;31.50;14.90;;;0.50;99.90;;;;;;5055429;28;20194;-83
2023/01/04 07:09:44;;;;;;;29.90;15.33;;;0.50;99.90;;;;;;5038661;28;20186;-87
2023/01/04 07:12:12;;;;;;;34.10;16.00;;;0.60;99.90;;;;;;5037989;28;20206;-85
2023/01/04 07:14:39;;;;;;;33.90;15.80;;;0.70;99.90;;;;;;5037396;28;20655;-85
2023/01/04 07:17:07;;;;;;;35.07;16.43;;;0.70;99.90;;;;;;5046655;28;20202;-82
2023/01/04 07:19:34;;;;;;;36.00;17.13;;;0.60;99.90;;;;;;5039821;28;20206;-76
2023/01/04 07:22:02;;;;;;;36.27;16.17;;;0.60;99.90;;;;;;5073459;28;20198;-82
2023/01/04 07:24:32;;;;;;;36.00;17.10;;;0.70;99.90;;;;;;5056672;28;20738;-86
2023/01/04 07:26:59;;;;;;;38.97;18.07;;;0.70;99.90;;;;;;5074412;28;20195;-86
2023/01/04 07:29:29;;;;;;;39.27;17.87;;;0.70;99.90;;;;;;5074775;28;20192;-86
2023/01/04 07:31:56;;;;;;;39.17;17.43;;;0.70;99.90;;;;;;5074750;28;20194;-83
2023/01/04 07:34:30;;;;;;;35.20;17.07;;;0.80;99.90;;;;;;5057370;28;20213;-84
2023/01/04 07:37:05;;;;;;;37.77;18.30;;;0.80;99.90;;;;;;5074540;28;20667;-80
2023/01/04 07:39:36;;;;;;;37.13;18.33;;;0.80;99.90;;;;;;5056340;28;20238;-81
2023/01/04 07:42:03;;;;;;;38.10;18.00;;;0.80;99.90;;;;;;5074236;28;20277;-81
2023/01/04 07:44:30;;;;;;;37.33;17.53;;;0.80;99.90;;;;;;5056180;28;20248;-81
2023/01/04 07:46:57;;;;;;;40.60;18.03;;;0.90;99.90;;;;;;5072811;28;20201;-76
2023/01/04 07:49:24;;;;;;;41.17;18.93;;;0.90;99.90;;;;;;5056782;28;20220;-80
2023/01/04 07:51:51;;;;;;;42.43;19.00;;;0.90;99.90;;;;;;5056132;28;20240;-79
2023/01/04 07:54:18;;;;;;;38.77;18.93;;;1.00;99.90;;;;;;5056045;28;20232;-77
2023/01/04 07:56:46;;;;;;;39.73;19.07;;;1.10;99.90;;;;;;5056272;28;20202;-79
2023/01/04 07:59:16;;;;;;;40.73;19.07;;;1.10;99.90;;;;;;5055835;28;20222;-81
2023/01/04 08:01:44;;;;;;;40.53;18.43;;;1.30;99.90;;;;;;5056327;28;20197;-77
2023/01/04 08:04:12;;;;;;;37.77;18.83;;;1.40;99.90;;;;;;5073868;28;20202;-78
2023/01/04 08:06:41;;;;;;;39.50;19.30;;;1.60;99.90;;;;;;5055594;28;20228;-77
2023/01/04 08:09:11;;;;;;;40.17;18.77;;;1.90;99.90;;;;;;5055855;28;20206;-82
2023/01/04 08:11:38;;;;;;;39.73;18.43;;;2.20;99.90;;;;;;5073708;28;20627;-81
2023/01/04 08:14:05;;;;;;;36.63;18.30;;;2.50;99.90;;;;;;5073920;28;20193;-80
2023/01/04 08:16:35;;;;;;;37.93;18.30;;;2.80;99.90;;;;;;5055722;28;20198;-80
2023/01/04 08:19:16;;;;;;;34.87;18.00;;;3.00;99.90;;;;;;5054348;28;20217;-83
2023/01/04 08:21:44;;;;;;;33.17;17.70;;;3.20;99.90;;;;;;5055756;28;20212;-85
2023/01/04 08:24:14;;;;;;;34.63;18.53;;;3.20;99.90;;;;;;5055348;28;20194;-82
2023/01/04 08:26:44;;;;;;;35.40;17.87;;;3.40;99.90;;;;;;5055486;28;20194;-80
2023/01/04 08:29:12;;;;;;;34.97;16.87;;;3.40;99.90;;;;;;5055342;28;20202;-80
2023/01/04 08:31:40;;;;;;;36.90;18.60;;;3.50;99.90;;;;;;5073271;28;20201;-82
2023/01/04 08:34:08;;;;;;;38.10;18.97;;;3.60;99.90;;;;;;5055275;28;20224;-82
2023/01/04 08:36:48;;;;;;;33.80;17.90;;;3.60;99.90;;;;;;5073224;28;20190;-83
2023/01/04 08:39:15;;;;;;;38.17;18.17;;;3.60;99.90;;;;;;5073101;28;20237;-83
2023/01/04 08:41:55;;;;;;;34.73;18.33;;;3.40;99.90;;;;;;5055578;28;20190;-83
2023/01/04 08:44:33;;;;;;;36.13;17.20;;;3.30;99.90;;;;;;5055123;28;20229;-77
2023/01/04 08:47:03;;;;;;;35.93;18.33;;;3.30;99.90;;;;;;5054770;28;20242;-80
2023/01/04 08:49:31;;;;;;;37.93;18.17;;;3.40;99.90;;;;;;5055253;28;20202;-81
2023/01/04 08:51:58;;;;;;;37.73;17.43;;;3.20;99.90;;;;;;5055082;28;20198;-79
2023/01/04 08:54:25;;;;;;;35.17;17.43;;;2.90;99.90;;;;;;5072800;28;20193;-75
2023/01/04 08:56:52;;;;;;;38.87;18.17;;;2.70;99.90;;;;;;5054373;28;20259;-76
2023/01/04 08:59:19;;;;;;;39.93;18.80;;;2.70;99.90;;;;;;5053566;28;20283;-77
2023/01/04 09:01:46;;;;;;;38.43;18.87;;;2.70;99.90;;;;;;5058667;28;20659;-74
2023/01/04 09:04:16;;;;;;;38.90;19.23;;;2.60;99.90;;;;;;5046704;28;20198;-75
2023/01/04 09:06:43;;;;;;;36.77;18.80;;;2.60;99.90;;;;;;5034213;28;20195;-75
2023/01/04 09:09:11;;;;;;;38.27;18.60;;;2.70;99.90;;;;;;5034674;28;20290;-75
2023/01/04 09:11:38;;;;;;;36.10;18.33;;;2.70;99.90;;;;;;5051218;28;20193;-76
2023/01/04 09:14:07;;;;;;;36.27;17.97;;;2.80;99.90;;;;;;5034485;28;20254;-75
2023/01/04 09:16:38;;;;;;;35.30;18.30;;;2.90;99.90;;;;;;5035056;28;20192;-75
2023/01/04 09:19:08;;;;;;;36.00;17.87;;;2.90;99.90;;;;;;5052566;28;20210;-74
2023/01/04 09:21:35;;;;;;;33.90;16.77;;;3.00;99.90;;;;;;5052407;28;20280;-76
2023/01/04 09:24:03;;;;;;;33.47;17.37;;;3.00;99.90;;;;;;5049532;28;20295;-75
2023/01/04 09:26:30;;;;;;;32.00;16.47;;;3.00;99.90;;;;;;5034946;28;20197;-83
2023/01/04 09:29:10;;;;;;;35.20;16.63;;;3.10;99.90;;;;;;5034364;28;20196;-83
2023/01/04 09:31:37;;;;;;;32.03;16.40;;;3.20;99.90;;;;;;5034375;28;20199;-83
2023/01/04 09:34:05;;;;;;;34.57;16.67;;;3.40;99.90;;;;;;5034414;28;20290;-75
2023/01/04 09:36:47;;;;;;;32.83;15.97;;;3.50;99.90;;;;;;5045164;28;20655;-75
2023/01/04 09:39:15;;;;;;;30.07;15.37;;;3.60;99.90;;;;;;5052068;28;20227;-76
2023/01/04 09:42:04;;;;;;;31.67;15.87;;;3.60;99.90;;;;;;5052526;28;20273;-74
2023/01/04 09:44:44;;;;;;;30.57;14.87;;;3.60;99.90;;;;;;5034307;28;20652;-77
2023/01/04 09:47:56;;;;;;;31.63;15.23;;;3.60;99.90;;;;;;5050817;28;20281;-79
2023/01/04 09:50:59;;;;;;;27.93;13.90;;;3.70;99.90;;;;;;5033614;28;20208;-75
2023/01/04 09:53:42;;;;;;;28.73;15.20;;;3.60;99.90;;;;;;5052758;28;20589;-76
2023/01/04 09:56:31;;;;;;;35.70;15.33;;;3.30;99.90;;;;;;5034241;28;20202;-75
2023/01/04 09:59:01;;;;;;;31.13;14.67;;;3.30;99.90;;;;;;5034340;28;20221;-77
2023/01/04 10:01:42;;;;;;;29.97;14.83;;;3.30;99.90;;;;;;5037397;28;20585;-75
2023/01/04 10:04:23;;;;;;;29.13;14.50;;;3.30;99.90;;;;;;5051094;28;20199;-80
2023/01/04 10:06:51;;;;;;;31.07;14.73;;;3.30;99.90;;;;;;5053521;28;20589;-75
2023/01/04 10:09:19;;;;;;;28.17;14.80;;;3.30;99.90;;;;;;5054481;28;20194;-80
2023/01/04 10:12:10;;;;;;;29.20;14.83;;;3.30;99.90;;;;;;5072867;28;20228;-80
2023/01/04 10:14:43;;;;;;;29.57;14.43;;;3.20;99.90;;;;;;5054524;28;20195;-80
2023/01/04 10:17:25;;;;;;;31.20;13.90;;;3.30;99.90;;;;;;5054410;28;20356;-77
2023/01/04 10:20:18;;;;;;;32.67;14.87;;;3.20;99.90;;;;;;5052208;28;20218;-76
2023/01/04 10:23:31;;;;;;;31.17;15.47;;;3.20;99.90;;;;;;5057777;28;20218;-78
2023/01/04 10:26:20;;;;;;;31.80;14.57;;;3.40;99.90;;;;;;5058762;28;20207;-78
2023/01/04 10:29:05;;;;;;;30.17;14.57;;;3.60;99.90;;;;;;5038738;28;20552;-78
2023/01/04 10:31:52;;;;;;;28.37;14.47;;;3.60;99.90;;;;;;5037358;28;20223;-76
2023/01/04 10:34:27;;;;;;;30.83;14.27;;;3.90;99.90;;;;;;5055767;28;20283;-78
2023/01/04 10:37:03;;;;;;;31.97;15.53;;;3.90;99.90;;;;;;5071355;28;20313;-77
2023/01/04 10:39:36;;;;;;;29.97;14.20;;;4.00;99.90;;;;;;5039439;28;20303;-78
2023/01/04 10:42:52;;;;;;;33.40;15.40;;;4.10;99.90;;;;;;5013748;28;20202;-76
2023/01/04 10:46:03;;;;;;;31.70;14.73;;;4.10;99.90;;;;;;5018911;28;20199;-76
2023/01/04 10:48:58;;;;;;;30.50;13.93;;;4.30;99.90;;;;;;5048881;28;20201;-78
2023/01/04 10:51:51;;;;;;;30.70;14.10;;;4.40;99.90;;;;;;5014772;28;20200;-75
2023/01/04 10:54:32;;;;;;;25.50;13.13;;;4.50;99.90;;;;;;4977088;28;20631;-78
2023/01/04 10:57:14;;;;;;;27.40;14.40;;;4.60;99.90;;;;;;4993509;28;20213;-77
2023/01/04 10:59:59;;;;;;;31.47;14.53;;;4.80;99.90;;;;;;4977515;28;20325;-75
2023/01/04 11:02:45;;;;;;;27.63;13.53;;;4.80;99.90;;;;;;4977893;28;20211;-77
2023/01/04 11:05:12;;;;;;;28.03;14.40;;;4.80;99.90;;;;;;4993491;28;20213;-76
2023/01/04 11:08:05;;;;;;;33.73;14.73;;;4.90;99.90;;;;;;4977417;28;20212;-76
2023/01/04 11:10:54;;;;;;;29.47;14.53;;;4.90;99.90;;;;;;4978049;28;20202;-81
2023/01/04 11:13:23;;;;;;;31.77;14.33;;;5.00;99.90;;;;;;4978095;28;20240;-75
2023/01/04 11:15:51;;;;;;;26.83;14.37;;;5.00;99.90;;;;;;4993996;28;20206;-75
2023/01/04 11:18:19;;;;;;;29.07;14.60;;;5.10;99.90;;;;;;4993751;28;20321;-79
2023/01/04 11:20:49;;;;;;;25.27;13.20;;;5.20;99.90;;;;;;4993676;28;20220;-78
2023/01/04 11:23:20;;;;;;;29.27;13.87;;;5.30;99.90;;;;;;4994460;28;20222;-78
2023/01/04 11:26:08;;;;;;;27.27;13.07;;;5.30;99.90;;;;;;4977671;28;20328;-79
2023/01/04 11:28:54;;;;;;;27.13;13.50;;;5.30;99.90;;;;;;4957755;28;20195;-75
2023/01/04 11:31:52;;;;;;;27.83;13.67;;;5.40;99.90;;;;;;5001635;28;20572;-76
2023/01/04 11:34:48;;;;;;;28.40;13.47;;;5.40;99.90;;;;;;5015142;28;20223;-74
2023/01/04 11:37:38;;;;;;;25.53;12.10;;;5.50;99.90;;;;;;5015333;28;20232;-75
2023/01/04 11:40:20;;;;;;;28.10;13.80;;;5.50;99.90;;;;;;5039950;28;20229;-76
2023/01/04 11:43:24;;;;;;;26.80;12.73;;;5.40;99.90;;;;;;5037885;28;20248;-75
2023/01/04 11:46:05;;;;;;;27.23;13.47;;;5.30;99.90;;;;;;5051596;28;20203;-74
2023/01/04 11:48:44;;;;;;;28.17;14.20;;;5.40;99.90;;;;;;5054714;28;20190;-83
2023/01/04 11:51:33;;;;;;;28.43;14.83;;;5.40;99.90;;;;;;5054313;28;20205;-84
2023/01/04 11:54:21;;;;;;;29.43;15.13;;;5.30;99.90;;;;;;5054729;28;20231;-74
2023/01/04 11:57:00;;;;;;;29.30;15.20;;;5.30;99.90;;;;;;5054447;28;20186;-77
2023/01/04 11:59:37;;;;;;;34.33;15.77;;;5.30;99.90;;;;;;5053115;28;20234;-79
2023/01/04 12:02:24;;;;;;;30.43;15.53;;;5.30;99.90;;;;;;5035549;28;20196;-84
2023/01/04 12:05:21;;;;;;;30.53;15.23;;;5.20;99.90;;;;;;5054881;28;20248;-83
2023/01/04 12:07:59;;;;;;;33.27;15.93;;;5.20;99.90;;;;;;5036595;28;20298;-78
2023/01/04 12:10:27;;;;;;;29.03;15.67;;;5.10;99.90;;;;;;5054047;28;20263;-75
2023/01/04 12:13:00;;;;;;;30.53;16.00;;;5.00;99.90;;;;;;5036897;28;20201;-76
2023/01/04 12:15:42;;;;;;;30.13;15.03;;;5.00;99.90;;;;;;5054320;28;20180;-78
2023/01/04 12:18:25;;;;;;;32.10;15.77;;;5.00;99.90;;;;;;5057553;28;20287;-74
2023/01/04 12:20:57;;;;;;;29.40;14.67;;;5.10;99.90;;;;;;5057184;28;20221;-77
2023/01/04 12:23:24;;;;;;;33.97;16.07;;;5.10;99.90;;;;;;5031057;28;20215;-74
2023/01/04 12:25:57;;;;;;;29.90;15.17;;;5.10;99.90;;;;;;5062188;28;20291;-77
2023/01/04 12:28:30;;;;;;;28.60;14.57;;;5.00;99.90;;;;;;5045290;28;20191;-74
2023/01/04 12:31:18;;;;;;;29.23;14.70;;;5.10;99.90;;;;;;5052037;28;20204;-80
2023/01/04 12:34:13;;;;;;;28.47;14.17;;;5.20;99.90;;;;;;5056879;28;20222;-77
2023/01/04 12:36:43;;;;;;;27.20;13.53;;;5.30;99.90;;;;;;5043400;28;20205;-78
2023/01/04 12:39:13;;;;;;;27.23;13.60;;;5.40;99.90;;;;;;5039177;28;20231;-85
2023/01/04 12:41:42;;;;;;;25.67;13.33;;;5.40;99.90;;;;;;5074545;28;20296;-83
2023/01/04 12:44:45;;;;;;;26.23;13.70;;;5.50;99.90;;;;;;5053004;28;20272;-82
2023/01/04 12:50:30;;;;;;;26.53;12.93;;;5.60;99.90;;;;;;5031375;28;20211;-80
2023/01/04 12:53:43;;;;;;;27.57;13.93;;;5.60;99.90;;;;;;5031520;28;20200;-78
2023/01/04 12:56:11;;;;;;;26.40;13.00;;;5.60;99.90;;;;;;5014596;28;20199;-85
2023/01/04 12:58:40;;;;;;;24.63;13.23;;;5.60;99.90;;;;;;5015048;28;20210;-82
2023/01/04 13:01:28;;;;;;;20.67;12.90;;;5.60;99.90;;;;;;5031293;28;20307;-88
2023/01/04 13:04:02;;;;;;;24.23;12.70;;;5.60;99.90;;;;;;5015220;28;20737;-83
2023/01/04 13:06:44;;;;;;;26.37;13.63;;;5.60;99.90;;;;;;5003851;28;20208;-85
2023/01/04 13:09:18;;;;;;;24.90;12.40;;;5.60;99.90;;;;;;5028226;28;20269;-81
2023/01/04 13:12:06;;;;;;;23.40;11.83;;;5.60;99.90;;;;;;5030886;28;20190;-73
2023/01/04 13:14:46;;;;;;;21.53;12.13;;;5.60;99.90;;;;;;5014374;28;20209;-84
2023/01/04 13:17:22;;;;;;;24.00;11.40;;;5.60;99.90;;;;;;5026807;28;20217;-82
2023/01/04 13:19:49;;;;;;;22.53;12.03;;;5.60;99.90;;;;;;5007434;28;20222;-80
2023/01/04 13:22:24;;;;;;;23.00;11.97;;;5.60;99.90;;;;;;5030621;28;20199;-77
2023/01/04 13:24:57;;;;;;;22.33;11.40;;;5.70;99.90;;;;;;5014915;28;20321;-73
2023/01/04 13:27:27;;;;;;;22.93;11.40;;;5.70;99.90;;;;;;5061815;28;20250;-85
2023/01/04 13:29:54;;;;;;;20.57;11.30;;;5.70;99.90;;;;;;5052809;28;20193;-85
2023/01/04 13:32:27;;;;;;;23.70;11.57;;;5.70;99.90;;;;;;5035564;28;20593;-75
2023/01/04 13:35:02;;;;;;;21.60;11.60;;;5.70;99.90;;;;;;5072443;28;20223;-74
2023/01/04 13:37:48;;;;;;;21.63;11.47;;;5.70;99.90;;;;;;5053809;28;20678;-78
2023/01/04 13:40:24;;;;;;;21.07;11.83;;;5.70;99.90;;;;;;5054693;28;20232;-78
2023/01/04 13:43:03;;;;;;;21.47;11.47;;;5.70;99.90;;;;;;5054048;28;20608;-74
2023/01/04 13:45:30;;;;;;;22.23;11.30;;;5.70;99.90;;;;;;5054738;28;20706;-80
2023/01/04 13:48:00;;;;;;;21.30;11.43;;;5.70;99.90;;;;;;5072362;28;20290;-79
2023/01/04 13:50:38;;;;;;;22.80;11.40;;;5.70;99.90;;;;;;5054704;28;20207;-80
2023/01/04 13:53:16;;;;;;;21.13;11.60;;;5.70;99.90;;;;;;5073263;28;20220;-75
2023/01/04 13:55:48;;;;;;;21.00;11.47;;;5.60;99.90;;;;;;5076418;28;20194;-74
2023/01/04 13:58:18;;;;;;;21.83;11.47;;;5.70;99.90;;;;;;5047370;28;20208;-74
2023/01/04 14:01:16;;;;;;;24.73;11.50;;;5.70;99.90;;;;;;5057653;28;20219;-75
2023/01/04 14:03:50;;;;;;;21.80;11.30;;;5.70;99.90;;;;;;4957963;28;20205;-77
2023/01/04 14:06:43;;;;;;;21.07;10.50;;;5.70;99.90;;;;;;4959230;28;20209;-76
2023/01/04 14:09:10;;;;;;;20.53;10.67;;;5.60;99.90;;;;;;4959579;28;20197;-77
2023/01/04 14:12:02;;;;;;;20.80;11.30;;;5.60;99.90;;;;;;4959535;28;20220;-79
2023/01/04 14:14:39;;;;;;;22.57;10.57;;;5.70;99.90;;;;;;4958987;28;20271;-72
2023/01/04 14:17:11;;;;;;;23.13;11.37;;;5.70;99.90;;;;;;4975117;28;20192;-72
2023/01/04 14:19:50;;;;;;;22.17;11.23;;;5.70;99.90;;;;;;4974899;28;20306;-71
2023/01/04 14:22:24;;;;;;;19.17;10.60;;;5.80;99.90;;;;;;4974898;28;20211;-71
2023/01/04 14:24:59;;;;;;;20.93;10.20;;;5.80;99.90;;;;;;4974706;28;20645;-73
2023/01/04 14:27:41;;;;;;;20.87;10.17;;;5.80;99.90;;;;;;4962812;28;20240;-72
2023/01/04 14:30:14;;;;;;;19.33;9.87;;;5.70;99.90;;;;;;4939852;29;20200;-74
2023/01/04 14:32:51;;;;;;;18.40;9.67;;;5.80;99.90;;;;;;4939573;29;20740;-70